createdAt,value
2018-05-26T00:01:38.655Z,20.40
2018-05-26T00:04:13.428Z,20.30
2018-05-26T00:06:48.142Z,20.30
2018-05-26T00:09:23.336Z,20.30
2018-05-26T00:11:58.909Z,20.30
2018-05-26T00:14:33.700Z,20.30
2018-05-26T00:17:08.459Z,20.30
2018-05-26T00:19:43.105Z,20.30
2018-05-26T00:22:17.742Z,20.30
2018-05-26T00:24:52.324Z,20.20
2018-05-26T00:27:21.364Z,20.20
2018-05-26T00:29:55.955Z,20.20
2018-05-26T00:32:30.674Z,20.20
2018-05-26T00:35:05.471Z,20.20
2018-05-26T00:37:40.872Z,20.10
2018-05-26T00:40:15.618Z,20.10
2018-05-26T00:42:51.043Z,20.10
2018-05-26T00:45:25.692Z,20.00
2018-05-26T00:48:00.283Z,20.00
2018-05-26T00:50:34.948Z,20.00
2018-05-26T00:53:09.644Z,19.90
2018-05-26T00:55:44.781Z,19.80
2018-05-26T00:58:19.386Z,19.80
2018-05-26T01:00:54.033Z,19.80
2018-05-26T01:03:28.652Z,19.80
2018-05-26T01:06:03.303Z,19.70
2018-05-26T01:08:37.811Z,19.70
2018-05-26T01:11:12.440Z,19.80
2018-05-26T01:13:46.953Z,19.70
2018-05-26T01:16:25.439Z,19.80
2018-05-26T01:19:00.053Z,19.70
2018-05-26T01:21:36.183Z,19.60
2018-05-26T01:24:10.888Z,19.60
2018-05-26T01:26:45.503Z,19.60
2018-05-26T01:29:20.186Z,19.50
2018-05-26T01:31:54.945Z,19.50
2018-05-26T01:34:29.683Z,19.50
2018-05-26T01:37:05.136Z,19.50
2018-05-26T01:39:39.840Z,19.40
2018-05-26T01:42:14.533Z,19.40
2018-05-26T01:44:49.287Z,19.40
2018-05-26T01:47:24.045Z,19.40
2018-05-26T01:49:58.656Z,19.30
2018-05-26T01:52:33.254Z,19.30
2018-05-26T01:55:02.559Z,19.30
2018-05-26T01:57:37.114Z,19.30
2018-05-26T02:00:11.814Z,19.20
2018-05-26T02:02:46.475Z,19.30
2018-05-26T02:05:21.198Z,19.30
2018-05-26T02:07:56.706Z,19.20
2018-05-26T02:10:31.433Z,19.30
2018-05-26T02:13:06.068Z,19.20
2018-05-26T02:15:40.633Z,19.20
2018-05-26T02:18:15.188Z,19.20
2018-05-26T02:20:49.880Z,19.20
2018-05-26T02:23:24.809Z,19.10
2018-05-26T02:26:00.495Z,19.20
2018-05-26T02:28:35.234Z,19.20
2018-05-26T02:31:09.919Z,19.20
2018-05-26T02:33:44.495Z,19.20
2018-05-26T02:36:19.208Z,19.20
2018-05-26T02:38:53.919Z,19.20
2018-05-26T02:41:29.299Z,19.20
2018-05-26T02:44:04.199Z,19.10
2018-05-26T02:46:39.591Z,19.10
2018-05-26T02:49:14.289Z,19.10
2018-05-26T02:51:48.878Z,19.10
2018-05-26T02:54:28.669Z,19.10
2018-05-26T02:57:03.231Z,19.10
2018-05-26T02:59:37.906Z,19.00
2018-05-26T03:02:13.334Z,18.90
2018-05-26T03:04:53.656Z,18.90
2018-05-26T03:07:33.523Z,18.90
2018-05-26T03:10:13.700Z,18.90
2018-05-26T03:12:54.770Z,18.80
2018-05-26T03:15:28.580Z,18.80
2018-05-26T03:18:03.445Z,18.80
2018-05-26T03:20:38.125Z,18.80
2018-05-26T03:23:12.999Z,18.80
2018-05-26T03:25:47.789Z,18.80
2018-05-26T03:28:22.629Z,18.80
2018-05-26T03:30:57.470Z,18.80
2018-05-26T03:33:32.055Z,18.70
2018-05-26T03:36:06.820Z,18.70
2018-05-26T03:38:41.457Z,18.70
2018-05-26T03:41:16.186Z,18.70
2018-05-26T03:43:50.799Z,18.60
2018-05-26T03:46:25.599Z,18.60
2018-05-26T03:49:00.303Z,18.60
2018-05-26T03:51:35.078Z,18.60
2018-05-26T03:54:09.712Z,18.50
2018-05-26T03:56:55.668Z,18.50
2018-05-26T03:59:41.692Z,18.30
2018-05-26T04:02:16.264Z,18.20
2018-05-26T04:04:50.883Z,18.10
2018-05-26T04:07:25.666Z,18.10
2018-05-26T04:10:00.191Z,18.10
2018-05-26T04:12:35.011Z,18.10
2018-05-26T04:15:10.759Z,18.10
2018-05-26T04:17:45.409Z,18.10
2018-05-26T04:20:19.941Z,18.10
2018-05-26T04:22:55.163Z,18.10
2018-05-26T04:25:29.772Z,18.10
2018-05-26T04:28:05.175Z,18.10
2018-05-26T04:30:40.073Z,18.10
2018-05-26T04:33:15.635Z,18.10
2018-05-26T04:35:50.413Z,18.20
2018-05-26T04:38:25.064Z,18.20
2018-05-26T04:40:59.762Z,18.30
2018-05-26T04:43:34.321Z,18.30
2018-05-26T04:46:08.944Z,18.30
2018-05-26T04:48:43.764Z,18.20
2018-05-26T04:51:19.352Z,18.20
2018-05-26T04:53:54.128Z,18.20
2018-05-26T04:56:29.085Z,18.20
2018-05-26T04:59:03.948Z,18.20
2018-05-26T05:01:39.402Z,18.30
2018-05-26T05:04:15.198Z,18.40
2018-05-26T05:06:50.623Z,18.50
2018-05-26T05:09:25.889Z,18.50
2018-05-26T05:12:00.674Z,18.50
2018-05-26T05:14:35.430Z,18.60
2018-05-26T05:17:10.803Z,18.70
2018-05-26T05:19:48.832Z,18.70
2018-05-26T05:22:23.564Z,18.70
2018-05-26T05:24:58.423Z,18.80
2018-05-26T05:27:33.967Z,19.00
2018-05-26T05:30:08.870Z,19.00
2018-05-26T05:32:44.178Z,19.10
2018-05-26T05:35:19.098Z,19.10
2018-05-26T05:37:53.604Z,19.10
2018-05-26T05:40:28.232Z,19.10
2018-05-26T05:43:02.977Z,19.10
2018-05-26T05:45:37.607Z,19.20
2018-05-26T05:48:16.783Z,19.30
2018-05-26T05:50:51.661Z,19.30
2018-05-26T05:53:27.053Z,19.40
2018-05-26T05:56:01.880Z,19.50
2018-05-26T05:58:36.721Z,19.50
2018-05-26T06:01:11.461Z,19.60
2018-05-26T06:03:46.750Z,19.60
2018-05-26T06:06:21.580Z,19.60
2018-05-26T06:08:56.918Z,19.70
2018-05-26T06:11:31.812Z,19.80
2018-05-26T06:14:06.350Z,19.80
2018-05-26T06:16:41.037Z,19.80
2018-05-26T06:19:15.594Z,19.90
2018-05-26T06:21:51.054Z,19.90
2018-05-26T06:24:25.867Z,19.90
2018-05-26T06:27:00.607Z,20.00
2018-05-26T06:29:35.203Z,20.10
2018-05-26T06:32:09.856Z,20.10
2018-05-26T06:34:44.442Z,20.10
2018-05-26T06:37:19.212Z,20.20
2018-05-26T06:39:53.864Z,20.30
2018-05-26T06:42:29.096Z,20.30
2018-05-26T06:45:03.591Z,20.40
2018-05-26T06:50:18.726Z,20.40
2018-05-26T06:52:53.457Z,20.50
2018-05-26T06:55:28.147Z,20.50
2018-05-26T06:58:03.686Z,20.60
2018-05-26T07:00:38.295Z,20.60
2018-05-26T07:03:12.943Z,20.70
2018-05-26T07:05:47.978Z,20.70
2018-05-26T07:08:22.736Z,20.80
2018-05-26T07:10:58.035Z,20.90
2018-05-26T07:13:32.697Z,20.80
2018-05-26T07:16:07.282Z,20.90
2018-05-26T07:18:42.730Z,21.00
2018-05-26T07:21:17.463Z,20.90
2018-05-26T07:23:52.237Z,21.10
2018-05-26T07:26:26.804Z,21.10
2018-05-26T07:29:02.427Z,21.20
2018-05-26T07:31:37.157Z,21.20
2018-05-26T07:34:11.828Z,21.30
2018-05-26T07:36:47.418Z,21.30
2018-05-26T07:39:22.220Z,21.30
2018-05-26T07:41:56.760Z,21.40
2018-05-26T07:44:31.363Z,21.40
2018-05-26T07:47:06.089Z,21.50
2018-05-26T07:49:40.719Z,21.50
2018-05-26T07:52:15.317Z,21.60
2018-05-26T07:54:50.011Z,21.70
2018-05-26T07:57:24.755Z,21.70
2018-05-26T07:59:59.434Z,21.70
2018-05-26T08:02:33.994Z,21.80
2018-05-26T08:05:08.932Z,21.90
2018-05-26T08:07:43.622Z,21.90
2018-05-26T08:10:18.284Z,22.00
2018-05-26T08:12:52.841Z,22.10
2018-05-26T08:15:27.784Z,22.20
2018-05-26T08:18:02.524Z,22.30
2018-05-26T08:20:37.224Z,22.40
2018-05-26T08:23:11.954Z,22.40
2018-05-26T08:25:49.812Z,22.50
2018-05-26T08:28:24.606Z,22.50
2018-05-26T08:30:59.525Z,22.70
2018-05-26T08:33:34.382Z,22.70
2018-05-26T08:36:08.987Z,22.80
2018-05-26T08:38:43.586Z,22.80
2018-05-26T08:41:18.406Z,22.90
2018-05-26T08:43:53.036Z,23.00
2018-05-26T08:46:31.227Z,23.10
2018-05-26T08:49:06.365Z,23.20
2018-05-26T08:51:40.970Z,23.20
2018-05-26T08:54:15.651Z,23.30
2018-05-26T08:56:50.300Z,23.40
2018-05-26T08:59:25.141Z,23.50
2018-05-26T09:02:00.814Z,23.50
2018-05-26T09:04:36.192Z,23.70
2018-05-26T09:07:11.512Z,23.70
2018-05-26T09:09:46.165Z,23.70
2018-05-26T09:12:20.794Z,23.80
2018-05-26T09:14:55.469Z,23.80
2018-05-26T09:17:33.963Z,23.90
2018-05-26T09:20:08.531Z,24.00
2018-05-26T09:22:43.191Z,24.00
2018-05-26T09:25:18.621Z,24.20
2018-05-26T09:27:53.525Z,24.10
2018-05-26T09:30:29.023Z,24.40
2018-05-26T09:33:05.688Z,24.40
2018-05-26T09:35:40.454Z,24.40
2018-05-26T09:38:15.234Z,24.40
2018-05-26T09:40:49.872Z,24.50
2018-05-26T09:43:24.500Z,24.60
2018-05-26T09:45:59.153Z,24.60
2018-05-26T09:48:33.719Z,24.70
2018-05-26T09:51:09.118Z,24.70
2018-05-26T09:53:43.910Z,24.70
2018-05-26T09:56:18.561Z,24.80
2018-05-26T09:58:53.193Z,24.80
2018-05-26T10:01:27.838Z,24.90
2018-05-26T10:04:03.161Z,25.00
2018-05-26T10:06:38.695Z,25.00
2018-05-26T10:09:14.182Z,25.00
2018-05-26T10:11:49.624Z,25.20
2018-05-26T10:14:24.247Z,25.10
2018-05-26T10:16:58.859Z,25.20
2018-05-26T10:19:34.208Z,25.20
2018-05-26T10:22:09.562Z,25.30
2018-05-26T10:24:44.255Z,25.30
2018-05-26T10:27:18.809Z,25.40
2018-05-26T10:29:53.386Z,25.50
2018-05-26T10:32:28.047Z,25.40
2018-05-26T10:35:02.689Z,25.50
2018-05-26T10:37:38.098Z,25.60
2018-05-26T10:42:54.325Z,25.70
2018-05-26T10:45:39.743Z,25.80
2018-05-26T10:48:14.540Z,25.90
2018-05-26T10:50:49.180Z,25.90
2018-05-26T10:53:23.790Z,26.00
2018-05-26T10:55:58.453Z,26.00
2018-05-26T10:58:33.307Z,26.00
2018-05-26T11:01:10.437Z,26.00
2018-05-26T11:03:45.047Z,26.00
2018-05-26T11:06:20.517Z,26.20
2018-05-26T11:08:55.199Z,26.10
2018-05-26T11:11:29.867Z,26.10
2018-05-26T11:14:04.501Z,26.20
2018-05-26T11:16:39.696Z,26.40
2018-05-26T11:19:15.195Z,26.60
2018-05-26T11:21:49.756Z,26.60
2018-05-26T11:24:24.411Z,26.70
2018-05-26T11:26:59.068Z,26.70
2018-05-26T11:29:53.039Z,26.80
2018-05-26T11:32:27.641Z,26.80
2018-05-26T11:35:02.200Z,26.90
2018-05-26T11:37:37.061Z,26.90
2018-05-26T11:40:11.675Z,27.00
2018-05-26T11:42:46.396Z,27.10
2018-05-26T11:45:21.067Z,27.20
2018-05-26T11:47:55.708Z,27.20
2018-05-26T11:50:30.658Z,27.20
2018-05-26T11:53:05.435Z,27.30
2018-05-26T11:55:40.043Z,27.30
2018-05-26T11:58:15.284Z,27.40
2018-05-26T12:00:50.153Z,27.40
2018-05-26T12:03:24.775Z,27.60
2018-05-26T12:05:59.378Z,27.80
2018-05-26T12:08:33.978Z,28.00
2018-05-26T12:11:08.631Z,28.00
2018-05-26T12:13:43.260Z,28.00
2018-05-26T12:16:17.881Z,27.80
2018-05-26T12:18:52.507Z,27.80
2018-05-26T12:21:27.151Z,27.80
2018-05-26T12:24:01.973Z,27.90
2018-05-26T12:26:37.372Z,27.90
2018-05-26T12:29:13.046Z,27.80
2018-05-26T12:31:48.457Z,27.80
2018-05-26T12:34:23.345Z,27.80
2018-05-26T12:36:58.058Z,27.80
2018-05-26T12:39:32.662Z,27.80
2018-05-26T12:42:07.281Z,27.80
2018-05-26T12:44:41.927Z,27.90
2018-05-26T12:47:16.526Z,28.00
2018-05-26T12:49:51.185Z,28.10
2018-05-26T12:52:25.752Z,28.10
2018-05-26T12:55:00.630Z,28.00
2018-05-26T12:57:35.416Z,28.10
2018-05-26T13:00:10.086Z,28.30
2018-05-26T13:02:44.708Z,28.40
2018-05-26T13:05:19.348Z,28.40
2018-05-26T13:07:54.022Z,28.50
2018-05-26T13:10:28.680Z,28.70
2018-05-26T13:13:03.070Z,28.80
2018-05-26T13:15:39.190Z,29.00
2018-05-26T13:18:14.292Z,29.00
2018-05-26T13:20:48.920Z,28.90
2018-05-26T13:23:23.664Z,28.90
2018-05-26T13:25:58.285Z,28.90
2018-05-26T13:28:33.092Z,29.00
2018-05-26T13:31:07.663Z,29.00
2018-05-26T13:33:43.532Z,29.00
2018-05-26T13:36:18.727Z,29.00
2018-05-26T13:38:53.910Z,29.00
2018-05-26T13:41:29.897Z,29.10
2018-05-26T13:44:04.512Z,29.10
2018-05-26T13:46:39.193Z,29.20
2018-05-26T13:49:13.921Z,29.30
2018-05-26T13:51:50.783Z,29.50
2018-05-26T13:54:25.442Z,29.50
2018-05-26T13:57:01.722Z,29.50
2018-05-26T13:59:36.385Z,29.50
2018-05-26T14:02:11.579Z,29.60
2018-05-26T14:04:46.245Z,29.70
2018-05-26T14:07:21.435Z,29.70
2018-05-26T14:09:56.598Z,29.60
2018-05-26T14:12:31.808Z,29.50
2018-05-26T14:15:06.592Z,29.40
2018-05-26T14:17:41.438Z,29.30
2018-05-26T14:20:15.929Z,29.30
2018-05-26T14:22:51.045Z,29.40
2018-05-26T14:25:25.709Z,29.50
2018-05-26T14:28:01.880Z,29.80
2018-05-26T14:30:36.538Z,29.80
2018-05-26T14:33:12.070Z,29.90
2018-05-26T14:35:47.684Z,30.00
2018-05-26T14:38:23.062Z,30.00
2018-05-26T14:40:58.399Z,30.00
2018-05-26T14:43:33.698Z,30.10
2018-05-26T14:46:10.778Z,30.20
2018-05-26T14:48:45.944Z,30.40
2018-05-26T14:51:22.668Z,30.50
2018-05-26T14:53:59.181Z,30.50
2018-05-26T14:56:34.535Z,30.50
2018-05-26T14:59:09.846Z,30.50
2018-05-26T15:01:45.917Z,30.60
2018-05-26T15:07:26.266Z,31.10
2018-05-26T15:10:01.775Z,31.00
2018-05-26T15:12:40.394Z,30.90
2018-05-26T15:15:18.305Z,30.60
2018-05-26T15:18:00.986Z,30.40
2018-05-26T15:20:37.252Z,30.40
2018-05-26T15:23:13.604Z,30.70
2018-05-26T15:25:48.952Z,30.80
2018-05-26T15:28:27.622Z,30.80
2018-05-26T15:31:05.238Z,30.50
2018-05-26T15:33:40.638Z,30.50
2018-05-26T15:36:16.943Z,30.40
2018-05-26T15:38:52.378Z,30.40
2018-05-26T15:41:30.670Z,30.40
2018-05-26T15:44:07.041Z,30.50
2018-05-26T15:46:42.583Z,30.50
2018-05-26T15:49:17.751Z,30.60
2018-05-26T15:51:53.134Z,30.60
2018-05-26T15:54:28.822Z,30.60
2018-05-26T15:57:04.072Z,30.60
2018-05-26T15:59:39.487Z,30.60
2018-05-26T16:02:15.554Z,30.60
2018-05-26T16:04:51.165Z,30.60
2018-05-26T16:07:26.030Z,30.50
2018-05-26T16:10:01.469Z,30.40
2018-05-26T16:12:36.698Z,30.30
2018-05-26T16:15:14.661Z,30.20
2018-05-26T16:17:49.966Z,30.20
2018-05-26T16:20:27.573Z,30.70
2018-05-26T16:23:03.559Z,30.70
2018-05-26T16:25:39.461Z,31.20
2018-05-26T16:28:15.130Z,31.60
2018-05-26T16:33:31.840Z,31.90
2018-05-26T16:36:07.188Z,31.90
2018-05-26T16:38:41.845Z,31.80
2018-05-26T16:41:17.473Z,31.70
2018-05-26T16:43:53.125Z,31.60
2018-05-26T16:46:28.591Z,31.50
2018-05-26T16:49:03.971Z,31.50
2018-05-26T16:51:39.251Z,31.50
2018-05-26T16:54:15.530Z,31.30
2018-05-26T16:56:51.126Z,31.30
2018-05-26T16:59:26.454Z,31.20
2018-05-26T17:02:01.898Z,31.10
2018-05-26T17:04:38.200Z,30.70
2018-05-26T17:07:14.042Z,30.70
2018-05-26T17:09:49.461Z,30.50
2018-05-26T17:12:24.691Z,30.30
2018-05-26T17:15:08.311Z,29.80
2018-05-26T17:17:44.378Z,29.60
2018-05-26T17:20:19.534Z,29.60
2018-05-26T17:22:54.349Z,29.40
2018-05-26T17:25:29.048Z,29.30
2018-05-26T17:28:03.596Z,29.20
2018-05-26T17:30:38.207Z,29.20
2018-05-26T17:33:13.012Z,29.10
2018-05-26T17:35:47.744Z,29.10
2018-05-26T17:38:22.510Z,29.00
2018-05-26T17:40:57.284Z,29.00
2018-05-26T17:43:32.835Z,28.80
2018-05-26T17:46:08.068Z,28.80
2018-05-26T17:48:53.457Z,28.80
2018-05-26T17:51:28.261Z,28.80
2018-05-26T17:54:02.796Z,28.80
2018-05-26T17:56:37.799Z,28.80
2018-05-26T17:59:12.497Z,28.70
2018-05-26T18:01:50.510Z,28.80
2018-05-26T18:05:00.660Z,28.70
2018-05-26T18:07:35.240Z,28.80
2018-05-26T18:10:09.836Z,28.80
2018-05-26T18:12:44.757Z,28.80
2018-05-26T18:15:19.642Z,28.80
2018-05-26T18:17:55.006Z,28.60
2018-05-26T18:20:29.936Z,28.60
2018-05-26T18:23:08.901Z,28.50
2018-05-26T18:25:43.573Z,28.50
2018-05-26T18:28:18.170Z,28.40
2018-05-26T18:30:52.733Z,28.30
2018-05-26T18:33:27.340Z,28.20
2018-05-26T18:36:02.763Z,28.00
2018-05-26T18:38:37.415Z,28.00
2018-05-26T18:41:12.008Z,27.90
2018-05-26T18:43:47.394Z,27.70
2018-05-26T18:46:21.948Z,27.70
2018-05-26T18:48:56.653Z,27.60
2018-05-26T18:51:32.216Z,27.40
2018-05-26T18:54:06.788Z,27.40
2018-05-26T18:56:45.849Z,27.30
2018-05-26T18:59:20.515Z,27.30
2018-05-26T19:01:55.199Z,27.20
2018-05-26T19:04:29.838Z,27.10
2018-05-26T19:07:04.631Z,27.00
2018-05-26T19:09:39.305Z,26.90
2018-05-26T19:12:14.265Z,26.80
2018-05-26T19:14:49.923Z,26.70
2018-05-26T19:17:27.053Z,26.70
2018-05-26T19:20:01.774Z,26.60
2018-05-26T19:22:36.468Z,26.60
2018-05-26T19:25:11.345Z,26.50
2018-05-26T19:27:45.919Z,26.50
2018-05-26T19:30:20.570Z,26.40
2018-05-26T19:32:55.287Z,26.30
2018-05-26T19:35:30.064Z,26.30
2018-05-26T19:38:05.579Z,26.20
2018-05-26T19:40:40.412Z,26.10
2018-05-26T19:43:15.344Z,26.10
2018-05-26T19:45:51.272Z,26.00
2018-05-26T19:48:28.890Z,26.00
2018-05-26T19:51:03.523Z,26.00
2018-05-26T19:53:38.878Z,25.90
2018-05-26T19:56:13.616Z,25.80
2018-05-26T19:58:48.276Z,25.80
2018-05-26T20:01:22.999Z,25.80
2018-05-26T20:03:57.583Z,25.70
2018-05-26T20:06:32.278Z,25.70
2018-05-26T20:09:08.273Z,25.60
2018-05-26T20:11:42.948Z,25.60
2018-05-26T20:14:17.724Z,25.60
2018-05-26T20:16:52.592Z,25.50
2018-05-26T20:19:27.360Z,25.50
2018-05-26T20:22:02.028Z,25.40
2018-05-26T20:24:37.392Z,25.40
2018-05-26T20:27:12.203Z,25.40
2018-05-26T20:29:46.749Z,25.40
2018-05-26T20:32:21.672Z,25.30
2018-05-26T20:34:57.365Z,25.20
2018-05-26T20:37:32.907Z,25.20
2018-05-26T20:40:08.341Z,25.10
2018-05-26T20:42:43.323Z,25.10
2018-05-26T20:45:18.211Z,25.10
2018-05-26T20:47:53.626Z,25.10
2018-05-26T20:50:31.082Z,25.00
2018-05-26T20:53:06.093Z,25.00
2018-05-26T20:55:40.745Z,25.00
2018-05-26T20:58:15.741Z,25.00
2018-05-26T21:00:50.708Z,24.90
2018-05-26T21:03:25.461Z,25.00
2018-05-26T21:06:00.300Z,24.90
2018-05-26T21:08:38.436Z,25.00
2018-05-26T21:11:13.206Z,24.90
2018-05-26T21:13:48.201Z,24.90
2018-05-26T21:16:23.217Z,24.90
2018-05-26T21:18:58.537Z,24.90
2018-05-26T21:21:33.468Z,24.80
2018-05-26T21:24:08.225Z,24.80
2018-05-26T21:26:42.825Z,24.80
2018-05-26T21:29:17.367Z,24.80
2018-05-26T21:31:51.974Z,24.80
2018-05-26T21:34:27.056Z,24.70
2018-05-26T21:37:03.257Z,24.50
2018-05-26T21:39:38.098Z,24.50
2018-05-26T21:42:12.350Z,24.30
2018-05-26T21:44:47.088Z,24.30
2018-05-26T21:47:23.538Z,24.30
2018-05-26T21:49:58.243Z,24.20
2018-05-26T21:52:33.699Z,24.20
2018-05-26T21:55:08.583Z,24.10
2018-05-26T21:57:43.319Z,24.10
2018-05-26T22:00:17.957Z,24.00
2018-05-26T22:02:52.604Z,24.00
2018-05-26T22:05:28.367Z,23.90
2018-05-26T22:08:04.010Z,23.90
2018-05-26T22:10:39.008Z,23.80
2018-05-26T22:13:13.612Z,23.80
2018-05-26T22:15:49.031Z,23.60
2018-05-26T22:18:39.463Z,23.60
2018-05-26T22:21:14.200Z,23.70
2018-05-26T22:23:48.830Z,23.50
2018-05-26T22:26:23.464Z,23.50
2018-05-26T22:28:58.251Z,23.50
2018-05-26T22:31:33.720Z,23.40
2018-05-26T22:34:10.385Z,23.30
2018-05-26T22:37:17.933Z,23.30
2018-05-26T22:39:53.013Z,23.30
2018-05-26T22:42:27.789Z,23.20
2018-05-26T22:45:03.046Z,23.20
2018-05-26T22:47:38.644Z,23.10
2018-05-26T22:50:13.657Z,23.10
2018-05-26T22:52:48.360Z,23.10
2018-05-26T22:55:26.145Z,23.00
2018-05-26T22:58:01.051Z,23.00
2018-05-26T23:00:38.234Z,23.00
2018-05-26T23:03:16.594Z,23.00
2018-05-26T23:05:51.227Z,23.00
2018-05-26T23:08:26.750Z,23.00
2018-05-26T23:11:01.369Z,23.00
2018-05-26T23:13:35.998Z,23.00
2018-05-26T23:16:10.674Z,23.00
2018-05-26T23:18:45.455Z,23.00
2018-05-26T23:21:20.106Z,22.90
2018-05-26T23:23:54.787Z,22.80
2018-05-26T23:26:29.563Z,22.80
2018-05-26T23:29:04.270Z,22.70
2018-05-26T23:31:39.266Z,22.60
2018-05-26T23:34:14.688Z,22.50
2018-05-26T23:36:49.458Z,22.50
2018-05-26T23:39:24.068Z,22.50
2018-05-26T23:41:58.673Z,22.40
2018-05-26T23:44:33.384Z,22.40
2018-05-26T23:47:08.053Z,22.40
2018-05-26T23:49:42.794Z,22.30
2018-05-26T23:52:17.375Z,22.30
2018-05-26T23:54:52.093Z,22.30
2018-05-26T23:57:26.712Z,22.20
